KMYF/MYF METAR and TAF weather

Enter ICAO airport designator
Station Type Date Time Source
KMYF METAR 2020/09/22 23:53 UTC NOAA

KMYF 222353Z 29006KT 10SM CLR 27/15 A2998 RMK AO2 SLP146 T02670150 10317 20256 58000


Station Type Date Time Source
KMYF Decoded METAR 2020/09/22 23:53 UTC NOAA

SAN DIEGO MONTGOMERY FIELD, CA, United States (KMYF) 32-49N 117-08W 136M
Sep 22, 2020 - 07:53 PM EDT / 2020.09.22 2353 UTC
Wind: from the WNW (290 degrees) at 7 MPH (6 KT):0
Visibility: 10 mile(s):0
Sky conditions: clear
Temperature: 80.1 F (26.7 C)
Dew Point: 59.0 F (15.0 C)
Relative Humidity: 48%
Pressure (altimeter): 29.98 in. Hg (1015 hPa)
Pressure tendency: 0.00 inches (0.0 hPa) lower than three hours ago
ob: KMYF 222353Z 29006KT 10SM CLR 27/15 A2998 RMK AO2 SLP146 T02670150 10317 20256 58000
cycle: 0

Station Type Date Time Source
KMYF TAF UTC NOAA

Error!

Example: see airport list